sensor_id;sensor_type;location;lat;lon;timestamp;temperature;humidity
20091;DHT22;10205;49.678;6.560;2024-01-15T00:00:42;2.50;68.60
20091;DHT22;10205;49.678;6.560;2024-01-15T00:03:09;2.60;68.70
20091;DHT22;10205;49.678;6.560;2024-01-15T00:05:36;2.60;68.70
20091;DHT22;10205;49.678;6.560;2024-01-15T00:08:04;2.60;68.60
20091;DHT22;10205;49.678;6.560;2024-01-15T00:10:31;2.60;68.60
20091;DHT22;10205;49.678;6.560;2024-01-15T00:12:58;2.60;68.60
20091;DHT22;10205;49.678;6.560;2024-01-15T00:15:27;2.60;68.60
20091;DHT22;10205;49.678;6.560;2024-01-15T00:17:55;2.60;68.60
20091;DHT22;10205;49.678;6.560;2024-01-15T00:20:22;2.60;68.60
20091;DHT22;10205;49.678;6.560;2024-01-15T00:22:50;2.60;68.60
20091;DHT22;10205;49.678;6.560;2024-01-15T00:25:17;2.60;68.60
20091;DHT22;10205;49.678;6.560;2024-01-15T00:27:44;2.60;68.70
20091;DHT22;10205;49.678;6.560;2024-01-15T00:30:12;2.50;68.70
20091;DHT22;10205;49.678;6.560;2024-01-15T00:32:41;2.50;68.70
20091;DHT22;10205;49.678;6.560;2024-01-15T00:35:08;2.50;68.80
20091;DHT22;10205;49.678;6.560;2024-01-15T00:37:36;2.50;68.80
20091;DHT22;10205;49.678;6.560;2024-01-15T00:40:04;2.50;68.70
20091;DHT22;10205;49.678;6.560;2024-01-15T00:42:33;2.50;68.80
20091;DHT22;10205;49.678;6.560;2024-01-15T00:45:00;2.50;68.80
20091;DHT22;10205;49.678;6.560;2024-01-15T00:47:27;2.50;68.80
20091;DHT22;10205;49.678;6.560;2024-01-15T00:49:55;2.50;68.80
20091;DHT22;10205;49.678;6.560;2024-01-15T00:52:23;2.50;68.80
20091;DHT22;10205;49.678;6.560;2024-01-15T00:54:50;2.60;68.90
20091;DHT22;10205;49.678;6.560;2024-01-15T00:57:17;2.60;68.90
20091;DHT22;10205;49.678;6.560;2024-01-15T00:59:44;2.60;68.90
20091;DHT22;10205;49.678;6.560;2024-01-15T01:02:11;2.50;68.80
20091;DHT22;10205;49.678;6.560;2024-01-15T01:04:38;2.50;68.80
20091;DHT22;10205;49.678;6.560;2024-01-15T01:07:08;2.60;69.00
20091;DHT22;10205;49.678;6.560;2024-01-15T01:09:35;2.60;69.00
20091;DHT22;10205;49.678;6.560;2024-01-15T01:12:02;2.60;69.00
20091;DHT22;10205;49.678;6.560;2024-01-15T01:14:30;2.60;69.00
20091;DHT22;10205;49.678;6.560;2024-01-15T01:16:57;2.60;69.00
20091;DHT22;10205;49.678;6.560;2024-01-15T01:19:24;2.60;69.00
20091;DHT22;10205;49.678;6.560;2024-01-15T01:21:51;2.60;69.00
20091;DHT22;10205;49.678;6.560;2024-01-15T01:24:20;2.60;69.00
20091;DHT22;10205;49.678;6.560;2024-01-15T01:26:47;2.60;69.00
20091;DHT22;10205;49.678;6.560;2024-01-15T01:29:14;2.60;69.00
20091;DHT22;10205;49.678;6.560;2024-01-15T01:31:43;2.60;69.00
20091;DHT22;10205;49.678;6.560;2024-01-15T01:34:10;2.60;69.00
20091;DHT22;10205;49.678;6.560;2024-01-15T01:36:40;2.60;68.90
20091;DHT22;10205;49.678;6.560;2024-01-15T01:39:07;2.60;68.90
20091;DHT22;10205;49.678;6.560;2024-01-15T01:41:37;2.60;68.90
20091;DHT22;10205;49.678;6.560;2024-01-15T01:44:05;2.70;69.00
20091;DHT22;10205;49.678;6.560;2024-01-15T01:46:32;2.70;69.00
20091;DHT22;10205;49.678;6.560;2024-01-15T01:49:05;2.60;69.00
20091;DHT22;10205;49.678;6.560;2024-01-15T01:51:34;2.60;69.00
20091;DHT22;10205;49.678;6.560;2024-01-15T01:54:03;2.60;69.00
20091;DHT22;10205;49.678;6.560;2024-01-15T01:56:32;2.60;69.10
20091;DHT22;10205;49.678;6.560;2024-01-15T01:59:01;2.60;69.20
20091;DHT22;10205;49.678;6.560;2024-01-15T02:01:30;2.60;69.20
20091;DHT22;10205;49.678;6.560;2024-01-15T02:03:58;2.60;69.20
20091;DHT22;10205;49.678;6.560;2024-01-15T02:06:26;2.60;69.20
20091;DHT22;10205;49.678;6.560;2024-01-15T02:08:53;2.60;69.30
20091;DHT22;10205;49.678;6.560;2024-01-15T02:11:21;2.60;69.30
20091;DHT22;10205;49.678;6.560;2024-01-15T02:13:48;2.60;69.30
20091;DHT22;10205;49.678;6.560;2024-01-15T02:16:17;2.60;69.30
20091;DHT22;10205;49.678;6.560;2024-01-15T02:18:45;2.70;69.40
20091;DHT22;10205;49.678;6.560;2024-01-15T02:21:13;2.70;69.30
20091;DHT22;10205;49.678;6.560;2024-01-15T02:23:41;2.70;69.40
20091;DHT22;10205;49.678;6.560;2024-01-15T02:26:09;2.70;69.40
20091;DHT22;10205;49.678;6.560;2024-01-15T02:28:36;2.70;69.40
20091;DHT22;10205;49.678;6.560;2024-01-15T02:31:03;2.70;69.40
20091;DHT22;10205;49.678;6.560;2024-01-15T02:33:30;2.70;69.40
20091;DHT22;10205;49.678;6.560;2024-01-15T02:35:57;2.70;69.40
20091;DHT22;10205;49.678;6.560;2024-01-15T02:38:24;2.70;69.40
20091;DHT22;10205;49.678;6.560;2024-01-15T02:40:53;2.70;69.30
20091;DHT22;10205;49.678;6.560;2024-01-15T02:43:20;2.70;69.30
20091;DHT22;10205;49.678;6.560;2024-01-15T02:45:47;2.70;69.30
20091;DHT22;10205;49.678;6.560;2024-01-15T02:48:14;2.70;69.30
20091;DHT22;10205;49.678;6.560;2024-01-15T02:50:41;2.70;70.10
20091;DHT22;10205;49.678;6.560;2024-01-15T02:53:08;2.70;69.30
20091;DHT22;10205;49.678;6.560;2024-01-15T02:55:35;2.70;69.30
20091;DHT22;10205;49.678;6.560;2024-01-15T02:58:04;2.70;69.30
20091;DHT22;10205;49.678;6.560;2024-01-15T03:00:31;2.70;69.30
20091;DHT22;10205;49.678;6.560;2024-01-15T03:02:59;2.80;69.40
20091;DHT22;10205;49.678;6.560;2024-01-15T03:05:26;2.70;69.30
20091;DHT22;10205;49.678;6.560;2024-01-15T03:07:53;2.80;69.30
20091;DHT22;10205;49.678;6.560;2024-01-15T03:10:20;2.80;69.40
20091;DHT22;10205;49.678;6.560;2024-01-15T03:12:47;2.80;69.40
20091;DHT22;10205;49.678;6.560;2024-01-15T03:15:15;2.80;69.40
20091;DHT22;10205;49.678;6.560;2024-01-15T03:17:44;2.80;69.40
20091;DHT22;10205;49.678;6.560;2024-01-15T03:20:11;2.80;69.40
20091;DHT22;10205;49.678;6.560;2024-01-15T03:22:38;2.80;69.30
20091;DHT22;10205;49.678;6.560;2024-01-15T03:25:06;2.80;69.40
20091;DHT22;10205;49.678;6.560;2024-01-15T03:27:34;2.80;69.40
20091;DHT22;10205;49.678;6.560;2024-01-15T03:30:01;2.80;69.30
20091;DHT22;10205;49.678;6.560;2024-01-15T03:32:30;2.80;69.30
20091;DHT22;10205;49.678;6.560;2024-01-15T03:34:57;2.80;69.30
20091;DHT22;10205;49.678;6.560;2024-01-15T03:37:24;2.80;69.30
20091;DHT22;10205;49.678;6.560;2024-01-15T03:39:51;2.80;69.30
20091;DHT22;10205;49.678;6.560;2024-01-15T03:42:18;2.80;69.30
20091;DHT22;10205;49.678;6.560;2024-01-15T03:44:45;2.80;69.30
20091;DHT22;10205;49.678;6.560;2024-01-15T03:47:13;2.80;69.30
20091;DHT22;10205;49.678;6.560;2024-01-15T03:49:41;2.80;69.30
20091;DHT22;10205;49.678;6.560;2024-01-15T03:52:08;2.80;69.30
20091;DHT22;10205;49.678;6.560;2024-01-15T03:54:35;2.90;69.40
20091;DHT22;10205;49.678;6.560;2024-01-15T03:57:03;2.80;69.30
20091;DHT22;10205;49.678;6.560;2024-01-15T03:59:30;2.80;69.40
20091;DHT22;10205;49.678;6.560;2024-01-15T04:01:58;2.90;69.40
20091;DHT22;10205;49.678;6.560;2024-01-15T04:04:25;2.90;69.40
20091;DHT22;10205;49.678;6.560;2024-01-15T04:06:53;2.90;69.40
20091;DHT22;10205;49.678;6.560;2024-01-15T04:09:20;2.90;69.40
20091;DHT22;10205;49.678;6.560;2024-01-15T04:11:48;2.90;69.40
20091;DHT22;10205;49.678;6.560;2024-01-15T04:14:15;2.90;69.40
20091;DHT22;10205;49.678;6.560;2024-01-15T04:16:42;2.90;69.40
20091;DHT22;10205;49.678;6.560;2024-01-15T04:19:09;2.90;69.40
20091;DHT22;10205;49.678;6.560;2024-01-15T04:21:36;2.90;69.40
20091;DHT22;10205;49.678;6.560;2024-01-15T04:24:05;2.90;69.40
20091;DHT22;10205;49.678;6.560;2024-01-15T04:26:33;2.90;69.40
20091;DHT22;10205;49.678;6.560;2024-01-15T04:29:00;2.90;69.40
20091;DHT22;10205;49.678;6.560;2024-01-15T04:31:27;2.90;69.40
20091;DHT22;10205;49.678;6.560;2024-01-15T04:33:54;2.90;69.40
20091;DHT22;10205;49.678;6.560;2024-01-15T04:36:21;2.90;69.60
20091;DHT22;10205;49.678;6.560;2024-01-15T04:38:48;2.90;69.60
20091;DHT22;10205;49.678;6.560;2024-01-15T04:41:16;2.90;69.60
20091;DHT22;10205;49.678;6.560;2024-01-15T04:43:44;2.90;69.70
20091;DHT22;10205;49.678;6.560;2024-01-15T04:46:11;2.90;69.70
20091;DHT22;10205;49.678;6.560;2024-01-15T04:48:38;2.90;70.50
20091;DHT22;10205;49.678;6.560;2024-01-15T04:51:05;2.90;69.70
20091;DHT22;10205;49.678;6.560;2024-01-15T04:53:35;2.90;69.70
20091;DHT22;10205;49.678;6.560;2024-01-15T04:56:02;2.90;69.80
20091;DHT22;10205;49.678;6.560;2024-01-15T04:58:31;2.90;69.80
20091;DHT22;10205;49.678;6.560;2024-01-15T05:00:58;2.90;69.90
20091;DHT22;10205;49.678;6.560;2024-01-15T05:03:25;2.90;69.80
20091;DHT22;10205;49.678;6.560;2024-01-15T05:05:52;2.90;69.80
20091;DHT22;10205;49.678;6.560;2024-01-15T05:08:19;2.90;69.90
20091;DHT22;10205;49.678;6.560;2024-01-15T05:10:47;2.90;69.80
20091;DHT22;10205;49.678;6.560;2024-01-15T05:13:14;2.90;69.80
20091;DHT22;10205;49.678;6.560;2024-01-15T05:15:42;2.90;70.60
20091;DHT22;10205;49.678;6.560;2024-01-15T05:18:10;3.00;69.80
20091;DHT22;10205;49.678;6.560;2024-01-15T05:20:37;3.00;69.80
20091;DHT22;10205;49.678;6.560;2024-01-15T05:23:04;3.00;69.80
20091;DHT22;10205;49.678;6.560;2024-01-15T05:25:31;3.00;69.80
20091;DHT22;10205;49.678;6.560;2024-01-15T05:27:58;3.00;69.80
20091;DHT22;10205;49.678;6.560;2024-01-15T05:30:25;3.00;69.80
20091;DHT22;10205;49.678;6.560;2024-01-15T05:32:53;3.00;69.80
20091;DHT22;10205;49.678;6.560;2024-01-15T05:35:20;3.00;69.80
20091;DHT22;10205;49.678;6.560;2024-01-15T05:37:47;3.00;69.80
20091;DHT22;10205;49.678;6.560;2024-01-15T05:40:14;3.00;69.80
20091;DHT22;10205;49.678;6.560;2024-01-15T05:42:41;3.00;69.80
20091;DHT22;10205;49.678;6.560;2024-01-15T05:45:09;3.00;69.80
20091;DHT22;10205;49.678;6.560;2024-01-15T05:47:36;3.00;69.70
20091;DHT22;10205;49.678;6.560;2024-01-15T05:50:05;3.00;69.70
20091;DHT22;10205;49.678;6.560;2024-01-15T05:52:33;3.00;69.70
20091;DHT22;10205;49.678;6.560;2024-01-15T05:55:00;3.10;69.80
20091;DHT22;10205;49.678;6.560;2024-01-15T05:57:28;3.00;69.70
20091;DHT22;10205;49.678;6.560;2024-01-15T05:59:56;3.10;69.90
20091;DHT22;10205;49.678;6.560;2024-01-15T06:02:23;3.10;69.90
20091;DHT22;10205;49.678;6.560;2024-01-15T06:04:50;3.10;69.90
20091;DHT22;10205;49.678;6.560;2024-01-15T06:07:18;3.10;69.90
20091;DHT22;10205;49.678;6.560;2024-01-15T06:09:45;3.10;69.90
20091;DHT22;10205;49.678;6.560;2024-01-15T06:12:12;3.10;69.90
20091;DHT22;10205;49.678;6.560;2024-01-15T06:14:40;3.10;70.00
20091;DHT22;10205;49.678;6.560;2024-01-15T06:17:08;3.10;70.00
20091;DHT22;10205;49.678;6.560;2024-01-15T06:19:35;3.10;70.00
20091;DHT22;10205;49.678;6.560;2024-01-15T06:22:02;3.10;70.10
20091;DHT22;10205;49.678;6.560;2024-01-15T06:24:30;3.10;70.10
20091;DHT22;10205;49.678;6.560;2024-01-15T06:26:58;3.10;70.10
20091;DHT22;10205;49.678;6.560;2024-01-15T06:29:26;3.10;70.10
20091;DHT22;10205;49.678;6.560;2024-01-15T06:31:53;3.10;70.10
20091;DHT22;10205;49.678;6.560;2024-01-15T06:34:20;3.10;70.20
20091;DHT22;10205;49.678;6.560;2024-01-15T06:36:47;3.10;70.20
20091;DHT22;10205;49.678;6.560;2024-01-15T06:39:14;3.10;70.30
20091;DHT22;10205;49.678;6.560;2024-01-15T06:41:43;3.10;70.30
20091;DHT22;10205;49.678;6.560;2024-01-15T06:44:10;3.10;70.20
20091;DHT22;10205;49.678;6.560;2024-01-15T06:46:41;3.10;70.30
20091;DHT22;10205;49.678;6.560;2024-01-15T06:49:09;3.10;70.30
20091;DHT22;10205;49.678;6.560;2024-01-15T06:51:36;3.10;70.20
20091;DHT22;10205;49.678;6.560;2024-01-15T06:54:04;3.10;70.30
20091;DHT22;10205;49.678;6.560;2024-01-15T06:56:32;3.10;70.30
20091;DHT22;10205;49.678;6.560;2024-01-15T06:59:00;3.10;70.30
20091;DHT22;10205;49.678;6.560;2024-01-15T07:01:28;3.10;70.30
20091;DHT22;10205;49.678;6.560;2024-01-15T07:03:56;3.10;70.30
20091;DHT22;10205;49.678;6.560;2024-01-15T07:06:23;3.10;70.30
20091;DHT22;10205;49.678;6.560;2024-01-15T07:08:50;3.10;70.30
20091;DHT22;10205;49.678;6.560;2024-01-15T07:11:17;3.20;70.30
20091;DHT22;10205;49.678;6.560;2024-01-15T07:13:44;3.20;70.30
20091;DHT22;10205;49.678;6.560;2024-01-15T07:16:13;3.20;70.20
20091;DHT22;10205;49.678;6.560;2024-01-15T07:18:40;3.20;70.30
20091;DHT22;10205;49.678;6.560;2024-01-15T07:21:07;3.20;70.20
20091;DHT22;10205;49.678;6.560;2024-01-15T07:23:34;3.20;70.30
20091;DHT22;10205;49.678;6.560;2024-01-15T07:26:02;3.20;70.40
20091;DHT22;10205;49.678;6.560;2024-01-15T07:28:30;3.20;70.40
20091;DHT22;10205;49.678;6.560;2024-01-15T07:30:57;3.10;70.40
20091;DHT22;10205;49.678;6.560;2024-01-15T07:33:26;3.20;70.40
20091;DHT22;10205;49.678;6.560;2024-01-15T07:35:53;3.20;70.40
20091;DHT22;10205;49.678;6.560;2024-01-15T07:38:20;3.20;70.40
20091;DHT22;10205;49.678;6.560;2024-01-15T07:40:48;3.20;70.40
20091;DHT22;10205;49.678;6.560;2024-01-15T07:43:15;3.20;70.30
20091;DHT22;10205;49.678;6.560;2024-01-15T07:45:42;3.20;70.30
20091;DHT22;10205;49.678;6.560;2024-01-15T07:48:10;3.20;70.40
20091;DHT22;10205;49.678;6.560;2024-01-15T07:50:39;3.20;70.30
20091;DHT22;10205;49.678;6.560;2024-01-15T07:53:06;3.20;70.30
20091;DHT22;10205;49.678;6.560;2024-01-15T07:55:33;3.30;70.40
20091;DHT22;10205;49.678;6.560;2024-01-15T07:58:00;3.20;70.30
20091;DHT22;10205;49.678;6.560;2024-01-15T08:00:27;3.30;70.40
20091;DHT22;10205;49.678;6.560;2024-01-15T08:02:54;3.30;70.30
20091;DHT22;10205;49.678;6.560;2024-01-15T08:05:21;3.20;71.00
20091;DHT22;10205;49.678;6.560;2024-01-15T08:07:50;3.30;70.20
20091;DHT22;10205;49.678;6.560;2024-01-15T08:10:17;3.30;70.30
20091;DHT22;10205;49.678;6.560;2024-01-15T08:12:44;3.30;70.30
20091;DHT22;10205;49.678;6.560;2024-01-15T08:15:11;3.30;70.20
20091;DHT22;10205;49.678;6.560;2024-01-15T08:17:38;3.30;70.20
20091;DHT22;10205;49.678;6.560;2024-01-15T08:20:06;3.30;70.10
20091;DHT22;10205;49.678;6.560;2024-01-15T08:22:34;3.30;70.10
20091;DHT22;10205;49.678;6.560;2024-01-15T08:25:02;3.40;70.10
20091;DHT22;10205;49.678;6.560;2024-01-15T08:27:30;3.40;70.20
20091;DHT22;10205;49.678;6.560;2024-01-15T08:29:57;3.30;70.10
20091;DHT22;10205;49.678;6.560;2024-01-15T08:32:24;3.40;70.20
20091;DHT22;10205;49.678;6.560;2024-01-15T08:34:52;3.40;70.10
20091;DHT22;10205;49.678;6.560;2024-01-15T08:37:19;3.40;70.10
20091;DHT22;10205;49.678;6.560;2024-01-15T08:39:46;3.40;70.30
20091;DHT22;10205;49.678;6.560;2024-01-15T08:42:14;3.40;70.30
20091;DHT22;10205;49.678;6.560;2024-01-15T08:44:41;3.40;70.30
20091;DHT22;10205;49.678;6.560;2024-01-15T08:47:09;3.40;70.30
20091;DHT22;10205;49.678;6.560;2024-01-15T08:49:36;3.40;70.30
20091;DHT22;10205;49.678;6.560;2024-01-15T08:52:03;3.40;70.30
20091;DHT22;10205;49.678;6.560;2024-01-15T08:54:30;3.40;70.30
20091;DHT22;10205;49.678;6.560;2024-01-15T08:56:57;3.40;71.20
20091;DHT22;10205;49.678;6.560;2024-01-15T08:59:26;3.40;70.40
20091;DHT22;10205;49.678;6.560;2024-01-15T09:01:54;3.40;70.40
20091;DHT22;10205;49.678;6.560;2024-01-15T09:04:22;3.40;70.40
20091;DHT22;10205;49.678;6.560;2024-01-15T09:06:50;3.40;70.40
20091;DHT22;10205;49.678;6.560;2024-01-15T09:09:17;3.40;70.40
20091;DHT22;10205;49.678;6.560;2024-01-15T09:11:45;3.40;70.50
20091;DHT22;10205;49.678;6.560;2024-01-15T09:14:12;3.40;70.50
20091;DHT22;10205;49.678;6.560;2024-01-15T09:16:41;3.40;70.50
20091;DHT22;10205;49.678;6.560;2024-01-15T09:19:08;3.40;70.40
20091;DHT22;10205;49.678;6.560;2024-01-15T09:21:35;3.40;70.40
20091;DHT22;10205;49.678;6.560;2024-01-15T09:24:04;3.40;70.40
20091;DHT22;10205;49.678;6.560;2024-01-15T09:26:32;3.40;70.50
20091;DHT22;10205;49.678;6.560;2024-01-15T09:28:59;3.40;70.50
20091;DHT22;10205;49.678;6.560;2024-01-15T09:31:26;3.40;70.50
20091;DHT22;10205;49.678;6.560;2024-01-15T09:33:55;3.50;70.50
20091;DHT22;10205;49.678;6.560;2024-01-15T09:36:24;3.50;71.30
20091;DHT22;10205;49.678;6.560;2024-01-15T09:38:51;3.50;70.60
20091;DHT22;10205;49.678;6.560;2024-01-15T09:41:18;3.50;70.50
20091;DHT22;10205;49.678;6.560;2024-01-15T09:43:46;3.50;70.50
20091;DHT22;10205;49.678;6.560;2024-01-15T09:46:14;3.50;70.50
20091;DHT22;10205;49.678;6.560;2024-01-15T09:48:43;3.50;70.50
20091;DHT22;10205;49.678;6.560;2024-01-15T09:51:11;3.50;70.50
20091;DHT22;10205;49.678;6.560;2024-01-15T09:53:39;3.50;70.50
20091;DHT22;10205;49.678;6.560;2024-01-15T09:56:08;3.50;70.60
20091;DHT22;10205;49.678;6.560;2024-01-15T09:58:38;3.60;71.40
20091;DHT22;10205;49.678;6.560;2024-01-15T10:01:08;3.60;70.50
20091;DHT22;10205;49.678;6.560;2024-01-15T10:03:35;3.60;70.40
20091;DHT22;10205;49.678;6.560;2024-01-15T10:06:03;3.60;70.40
20091;DHT22;10205;49.678;6.560;2024-01-15T10:08:35;3.60;70.50
20091;DHT22;10205;49.678;6.560;2024-01-15T10:11:03;3.60;70.50
20091;DHT22;10205;49.678;6.560;2024-01-15T10:13:31;3.60;70.50
20091;DHT22;10205;49.678;6.560;2024-01-15T10:15:58;3.60;70.50
20091;DHT22;10205;49.678;6.560;2024-01-15T10:18:28;3.60;70.50
20091;DHT22;10205;49.678;6.560;2024-01-15T10:20:56;3.70;70.50
20091;DHT22;10205;49.678;6.560;2024-01-15T10:23:24;3.70;70.50
20091;DHT22;10205;49.678;6.560;2024-01-15T10:25:52;3.70;70.50
20091;DHT22;10205;49.678;6.560;2024-01-15T10:28:19;3.70;70.50
20091;DHT22;10205;49.678;6.560;2024-01-15T10:30:47;3.70;70.50
20091;DHT22;10205;49.678;6.560;2024-01-15T10:33:21;3.70;70.50
20091;DHT22;10205;49.678;6.560;2024-01-15T10:35:53;3.70;70.50
20091;DHT22;10205;49.678;6.560;2024-01-15T10:38:21;3.70;70.40
20091;DHT22;10205;49.678;6.560;2024-01-15T10:40:52;3.70;70.40
20091;DHT22;10205;49.678;6.560;2024-01-15T10:43:20;3.80;70.40
20091;DHT22;10205;49.678;6.560;2024-01-15T10:45:49;3.80;70.50
20091;DHT22;10205;49.678;6.560;2024-01-15T10:48:18;3.70;70.50
20091;DHT22;10205;49.678;6.560;2024-01-15T10:50:46;3.80;70.50
20091;DHT22;10205;49.678;6.560;2024-01-15T10:53:16;3.80;70.50
20091;DHT22;10205;49.678;6.560;2024-01-15T10:55:46;3.80;70.40
20091;DHT22;10205;49.678;6.560;2024-01-15T10:58:16;3.80;70.50
20091;DHT22;10205;49.678;6.560;2024-01-15T11:00:44;3.80;70.50
20091;DHT22;10205;49.678;6.560;2024-01-15T11:03:11;3.90;70.40
20091;DHT22;10205;49.678;6.560;2024-01-15T11:05:41;3.90;70.50
20091;DHT22;10205;49.678;6.560;2024-01-15T11:08:09;3.90;70.50
20091;DHT22;10205;49.678;6.560;2024-01-15T11:10:42;3.90;70.50
20091;DHT22;10205;49.678;6.560;2024-01-15T11:13:15;4.00;70.50
20091;DHT22;10205;49.678;6.560;2024-01-15T11:16:00;4.00;70.50
20091;DHT22;10205;49.678;6.560;2024-01-15T11:18:29;4.00;70.50
20091;DHT22;10205;49.678;6.560;2024-01-15T11:21:20;4.00;70.40
20091;DHT22;10205;49.678;6.560;2024-01-15T11:23:50;4.00;70.50
20091;DHT22;10205;49.678;6.560;2024-01-15T11:26:29;4.10;70.40
20091;DHT22;10205;49.678;6.560;2024-01-15T11:28:59;4.10;70.50
20091;DHT22;10205;49.678;6.560;2024-01-15T11:31:30;4.10;70.40
20091;DHT22;10205;49.678;6.560;2024-01-15T11:34:51;4.10;70.40
20091;DHT22;10205;49.678;6.560;2024-01-15T11:37:28;4.10;70.50
20091;DHT22;10205;49.678;6.560;2024-01-15T11:40:18;4.10;70.40
20091;DHT22;10205;49.678;6.560;2024-01-15T11:42:46;4.10;70.40
20091;DHT22;10205;49.678;6.560;2024-01-15T11:45:16;4.20;70.40
20091;DHT22;10205;49.678;6.560;2024-01-15T11:48:10;4.20;70.50
20091;DHT22;10205;49.678;6.560;2024-01-15T11:50:40;4.20;70.60
20091;DHT22;10205;49.678;6.560;2024-01-15T11:53:16;4.20;70.50
20091;DHT22;10205;49.678;6.560;2024-01-15T11:55:48;4.30;70.50
20091;DHT22;10205;49.678;6.560;2024-01-15T11:58:18;4.30;70.50
20091;DHT22;10205;49.678;6.560;2024-01-15T12:00:48;4.30;70.50
20091;DHT22;10205;49.678;6.560;2024-01-15T12:03:17;4.30;70.80
20091;DHT22;10205;49.678;6.560;2024-01-15T12:05:44;4.30;70.90
20091;DHT22;10205;49.678;6.560;2024-01-15T12:08:11;4.30;70.90
20091;DHT22;10205;49.678;6.560;2024-01-15T12:10:39;4.30;70.90
20091;DHT22;10205;49.678;6.560;2024-01-15T12:13:10;4.40;70.90
20091;DHT22;10205;49.678;6.560;2024-01-15T12:15:39;4.40;70.90
20091;DHT22;10205;49.678;6.560;2024-01-15T12:18:10;4.40;70.80
20091;DHT22;10205;49.678;6.560;2024-01-15T12:20:40;4.40;70.70
20091;DHT22;10205;49.678;6.560;2024-01-15T12:23:08;4.50;70.80
20091;DHT22;10205;49.678;6.560;2024-01-15T12:25:35;4.50;70.70
20091;DHT22;10205;49.678;6.560;2024-01-15T12:28:03;4.50;70.60
20091;DHT22;10205;49.678;6.560;2024-01-15T12:30:33;4.50;70.60
20091;DHT22;10205;49.678;6.560;2024-01-15T12:33:03;4.60;70.60
20091;DHT22;10205;49.678;6.560;2024-01-15T12:35:33;4.60;70.50
20091;DHT22;10205;49.678;6.560;2024-01-15T12:38:00;4.60;70.50
20091;DHT22;10205;49.678;6.560;2024-01-15T12:40:29;4.60;70.30
20091;DHT22;10205;49.678;6.560;2024-01-15T12:42:57;4.70;70.30
20091;DHT22;10205;49.678;6.560;2024-01-15T12:45:25;4.70;70.20
20091;DHT22;10205;49.678;6.560;2024-01-15T12:47:52;4.70;70.20
20091;DHT22;10205;49.678;6.560;2024-01-15T12:50:24;4.70;70.10
20091;DHT22;10205;49.678;6.560;2024-01-15T12:52:53;4.70;70.00
20091;DHT22;10205;49.678;6.560;2024-01-15T12:55:20;4.80;69.90
20091;DHT22;10205;49.678;6.560;2024-01-15T12:57:47;4.80;69.80
20091;DHT22;10205;49.678;6.560;2024-01-15T13:00:19;4.90;69.70
20091;DHT22;10205;49.678;6.560;2024-01-15T13:02:47;4.90;69.60
20091;DHT22;10205;49.678;6.560;2024-01-15T13:05:16;4.90;69.40
20091;DHT22;10205;49.678;6.560;2024-01-15T13:07:43;4.90;69.40
20091;DHT22;10205;49.678;6.560;2024-01-15T13:10:13;4.90;69.40
20091;DHT22;10205;49.678;6.560;2024-01-15T13:12:40;4.90;69.30
20091;DHT22;10205;49.678;6.560;2024-01-15T13:15:08;5.00;69.30
20091;DHT22;10205;49.678;6.560;2024-01-15T13:17:37;5.00;69.20
20091;DHT22;10205;49.678;6.560;2024-01-15T13:20:06;5.00;69.10
20091;DHT22;10205;49.678;6.560;2024-01-15T13:22:34;5.00;69.00
20091;DHT22;10205;49.678;6.560;2024-01-15T13:25:05;5.00;68.90
20091;DHT22;10205;49.678;6.560;2024-01-15T13:27:36;5.10;68.90
20091;DHT22;10205;49.678;6.560;2024-01-15T13:30:04;5.10;68.80
20091;DHT22;10205;49.678;6.560;2024-01-15T13:32:33;5.00;68.70
20091;DHT22;10205;49.678;6.560;2024-01-15T13:35:00;5.10;68.70
20091;DHT22;10205;49.678;6.560;2024-01-15T13:37:28;5.10;68.60
20091;DHT22;10205;49.678;6.560;2024-01-15T13:39:55;5.10;68.60
20091;DHT22;10205;49.678;6.560;2024-01-15T13:42:21;5.10;68.50
20091;DHT22;10205;49.678;6.560;2024-01-15T13:44:50;5.10;68.40
20091;DHT22;10205;49.678;6.560;2024-01-15T13:47:17;5.10;68.40
20091;DHT22;10205;49.678;6.560;2024-01-15T13:49:44;5.10;68.30
20091;DHT22;10205;49.678;6.560;2024-01-15T13:52:12;5.10;68.00
20091;DHT22;10205;49.678;6.560;2024-01-15T13:54:39;5.10;67.80
20091;DHT22;10205;49.678;6.560;2024-01-15T13:57:06;5.10;67.60
20091;DHT22;10205;49.678;6.560;2024-01-15T13:59:33;5.10;67.50
20091;DHT22;10205;49.678;6.560;2024-01-15T14:02:01;5.10;67.60
20091;DHT22;10205;49.678;6.560;2024-01-15T14:04:28;5.10;67.50
20091;DHT22;10205;49.678;6.560;2024-01-15T14:06:55;5.10;67.50
20091;DHT22;10205;49.678;6.560;2024-01-15T14:09:23;5.10;68.30
20091;DHT22;10205;49.678;6.560;2024-01-15T14:11:51;5.10;68.20
20091;DHT22;10205;49.678;6.560;2024-01-15T14:14:18;5.10;67.30
20091;DHT22;10205;49.678;6.560;2024-01-15T14:16:45;5.10;67.30
20091;DHT22;10205;49.678;6.560;2024-01-15T14:19:14;5.10;67.20
20091;DHT22;10205;49.678;6.560;2024-01-15T14:21:41;5.20;67.10
20091;DHT22;10205;49.678;6.560;2024-01-15T14:24:08;5.20;67.00
20091;DHT22;10205;49.678;6.560;2024-01-15T14:26:35;5.20;67.00
20091;DHT22;10205;49.678;6.560;2024-01-15T14:29:02;5.20;67.00
20091;DHT22;10205;49.678;6.560;2024-01-15T14:31:31;5.30;67.00
20091;DHT22;10205;49.678;6.560;2024-01-15T14:33:59;5.30;66.80
20091;DHT22;10205;49.678;6.560;2024-01-15T14:36:29;5.30;66.80
20091;DHT22;10205;49.678;6.560;2024-01-15T14:38:56;5.30;66.60
20091;DHT22;10205;49.678;6.560;2024-01-15T14:41:24;5.30;66.60
20091;DHT22;10205;49.678;6.560;2024-01-15T14:43:51;5.30;66.60
20091;DHT22;10205;49.678;6.560;2024-01-15T14:46:18;5.20;66.50
20091;DHT22;10205;49.678;6.560;2024-01-15T14:48:46;5.30;66.70
20091;DHT22;10205;49.678;6.560;2024-01-15T14:51:13;5.30;67.10
20091;DHT22;10205;49.678;6.560;2024-01-15T14:53:42;5.30;67.50
20091;DHT22;10205;49.678;6.560;2024-01-15T14:56:09;5.30;66.60
20091;DHT22;10205;49.678;6.560;2024-01-15T14:58:36;5.40;66.70
20091;DHT22;10205;49.678;6.560;2024-01-15T15:01:04;5.40;66.60
20091;DHT22;10205;49.678;6.560;2024-01-15T15:03:31;5.40;66.50
20091;DHT22;10205;49.678;6.560;2024-01-15T15:05:58;5.30;66.20
20091;DHT22;10205;49.678;6.560;2024-01-15T15:08:25;5.30;66.20
20091;DHT22;10205;49.678;6.560;2024-01-15T15:10:54;5.30;66.10
20091;DHT22;10205;49.678;6.560;2024-01-15T15:13:22;5.30;66.10
20091;DHT22;10205;49.678;6.560;2024-01-15T15:15:54;5.30;66.20
20091;DHT22;10205;49.678;6.560;2024-01-15T15:18:21;5.30;66.30
20091;DHT22;10205;49.678;6.560;2024-01-15T15:20:48;5.30;66.50
20091;DHT22;10205;49.678;6.560;2024-01-15T15:23:16;5.30;66.30
20091;DHT22;10205;49.678;6.560;2024-01-15T15:25:44;5.30;66.20
20091;DHT22;10205;49.678;6.560;2024-01-15T15:28:12;5.30;66.10
20091;DHT22;10205;49.678;6.560;2024-01-15T15:30:41;5.30;66.10
20091;DHT22;10205;49.678;6.560;2024-01-15T15:33:09;5.30;66.10
20091;DHT22;10205;49.678;6.560;2024-01-15T15:35:36;5.30;66.20
20091;DHT22;10205;49.678;6.560;2024-01-15T15:38:05;5.30;66.20
20091;DHT22;10205;49.678;6.560;2024-01-15T15:40:32;5.30;66.10
20091;DHT22;10205;49.678;6.560;2024-01-15T15:42:59;5.30;66.20
20091;DHT22;10205;49.678;6.560;2024-01-15T15:45:27;5.30;66.20
20091;DHT22;10205;49.678;6.560;2024-01-15T15:47:54;5.30;67.30
20091;DHT22;10205;49.678;6.560;2024-01-15T15:50:22;5.30;66.90